createdAt,value
2023-05-06T00:01:54.692Z,101089.06
2023-05-06T00:04:23.958Z,101094.81
2023-05-06T00:06:53.509Z,101103.28
2023-05-06T00:09:24.199Z,101095.84
2023-05-06T00:11:55.139Z,101090.00
2023-05-06T00:14:24.334Z,101112.44
2023-05-06T00:16:53.765Z,101092.94
2023-05-06T00:19:23.148Z,101110.91
2023-05-06T00:21:52.545Z,101105.59
2023-05-06T00:24:21.896Z,101118.00
2023-05-06T00:26:51.124Z,101112.88
2023-05-06T00:29:21.722Z,101111.94
2023-05-06T00:31:51.002Z,101103.28
2023-05-06T00:34:20.401Z,101050.06
2023-05-06T00:36:49.621Z,101123.84
2023-05-06T00:39:18.922Z,101111.25
2023-05-06T00:41:48.501Z,101114.59
2023-05-06T00:44:18.156Z,101112.47
2023-05-06T00:46:50.061Z,101124.38
2023-05-06T00:49:19.165Z,101118.28
2023-05-06T00:51:49.555Z,101113.47
2023-05-06T00:54:19.032Z,101121.22
2023-05-06T00:56:48.358Z,101095.59
2023-05-06T00:59:18.099Z,101108.88
2023-05-06T01:01:48.674Z,101131.06
2023-05-06T01:04:18.644Z,101123.69
2023-05-06T01:06:55.601Z,101121.41
2023-05-06T01:09:30.092Z,101127.19
2023-05-06T01:12:08.310Z,101120.94
2023-05-06T01:14:44.912Z,101127.56
2023-05-06T01:17:19.403Z,101126.03
2023-05-06T01:19:53.572Z,101141.09
2023-05-06T01:22:24.612Z,101142.25
2023-05-06T01:24:55.225Z,101134.25
2023-05-06T01:27:26.000Z,101109.13
2023-05-06T01:29:55.685Z,101140.94
2023-05-06T01:32:37.786Z,101121.38
2023-05-06T01:35:13.627Z,101167.56
2023-05-06T01:37:49.239Z,101163.56
2023-05-06T01:40:20.104Z,101164.66
2023-05-06T01:42:51.027Z,101157.94
2023-05-06T01:45:22.547Z,101172.44
2023-05-06T01:47:52.185Z,101169.03
2023-05-06T01:50:21.635Z,101168.72
2023-05-06T01:52:59.199Z,101167.78
2023-05-06T01:55:29.734Z,101152.56
2023-05-06T01:57:58.983Z,101145.78
2023-05-06T02:00:28.424Z,101165.00
2023-05-06T02:02:57.826Z,101161.53
2023-05-06T02:05:27.613Z,101156.06
2023-05-06T02:07:59.339Z,101168.53
2023-05-06T02:10:30.027Z,101153.53
2023-05-06T02:13:06.304Z,101184.44
2023-05-06T02:15:35.747Z,101173.06
2023-05-06T02:18:06.116Z,101179.34
2023-05-06T02:20:35.472Z,101193.53
2023-05-06T02:23:05.082Z,101198.84
2023-05-06T02:25:35.811Z,101193.69
2023-05-06T02:28:05.156Z,101205.75
2023-05-06T02:30:34.712Z,101195.16
2023-05-06T02:33:03.844Z,101203.19
2023-05-06T02:35:33.265Z,101180.47
2023-05-06T02:38:02.573Z,101192.50
2023-05-06T02:40:31.796Z,101192.72
2023-05-06T02:43:02.839Z,101191.34
2023-05-06T02:45:32.607Z,101164.50
2023-05-06T02:48:01.907Z,101187.13
2023-05-06T02:50:31.884Z,101196.66
2023-05-06T02:53:01.119Z,101212.56
2023-05-06T02:55:30.812Z,101208.19
2023-05-06T02:58:00.007Z,101208.06
2023-05-06T03:03:00.447Z,101213.22
2023-05-06T03:05:29.438Z,101228.38
2023-05-06T03:07:58.541Z,101215.69
2023-05-06T03:10:27.962Z,101177.63
2023-05-06T03:12:59.449Z,101223.34
2023-05-06T03:15:32.398Z,101223.13
2023-05-06T03:18:01.960Z,101242.50
2023-05-06T03:20:32.019Z,101235.38
2023-05-06T03:23:02.851Z,101251.84
2023-05-06T03:25:32.428Z,101243.97
2023-05-06T03:28:02.524Z,101230.09
2023-05-06T03:30:35.222Z,101236.91
2023-05-06T03:33:07.857Z,101236.25
2023-05-06T03:35:37.459Z,101268.03
2023-05-06T03:38:06.996Z,101263.78
2023-05-06T03:40:46.654Z,101262.28
2023-05-06T03:43:17.819Z,101255.06
2023-05-06T03:45:51.521Z,101274.66
2023-05-06T03:48:21.087Z,101275.81
2023-05-06T03:50:51.892Z,101272.94
2023-05-06T03:53:21.731Z,101275.69
2023-05-06T03:55:52.329Z,101276.59
2023-05-06T03:58:22.073Z,101261.78
2023-05-06T04:00:53.617Z,101267.09
2023-05-06T04:03:22.879Z,101270.06
2023-05-06T04:05:54.018Z,101280.56
2023-05-06T04:08:27.482Z,101282.22
2023-05-06T04:10:57.272Z,101285.81
2023-05-06T04:13:32.668Z,101298.03
2023-05-06T04:16:06.587Z,101287.06
2023-05-06T04:18:40.311Z,101287.28
2023-05-06T04:21:13.483Z,101286.44
2023-05-06T04:23:45.573Z,101278.00
2023-05-06T04:26:18.613Z,101295.75
2023-05-06T04:28:49.531Z,101289.94
2023-05-06T04:31:21.216Z,101290.47
2023-05-06T04:33:53.639Z,101292.47
2023-05-06T04:36:25.898Z,101297.03
2023-05-06T04:39:16.406Z,101284.44
2023-05-06T04:41:46.273Z,101302.88
2023-05-06T04:44:20.449Z,101314.94
2023-05-06T04:46:51.545Z,101315.16
2023-05-06T04:49:21.024Z,101313.31
2023-05-06T04:51:50.383Z,101314.16
2023-05-06T04:54:19.856Z,101319.38
2023-05-06T04:56:49.104Z,101305.66
2023-05-06T04:59:20.868Z,101308.13
2023-05-06T05:01:51.588Z,101315.63
2023-05-06T05:04:21.002Z,101314.25
2023-05-06T05:06:50.227Z,101257.22
2023-05-06T05:09:19.640Z,101301.22
2023-05-06T05:11:51.318Z,101248.28
2023-05-06T05:14:21.592Z,101301.78
2023-05-06T05:16:52.114Z,101310.22
2023-05-06T05:19:21.461Z,101307.97
2023-05-06T05:21:51.332Z,101313.53
2023-05-06T05:24:24.212Z,101272.38
2023-05-06T05:26:53.811Z,101312.28
2023-05-06T05:29:24.505Z,101301.63
2023-05-06T05:32:14.763Z,101306.06
2023-05-06T05:34:44.486Z,101312.47
2023-05-06T05:37:13.954Z,101299.28
2023-05-06T05:39:43.605Z,101306.59
2023-05-06T05:42:14.289Z,101309.22
2023-05-06T05:44:45.805Z,101305.28
2023-05-06T05:47:16.636Z,101302.22
2023-05-06T05:49:45.707Z,101301.09
2023-05-06T05:52:15.917Z,101307.31
2023-05-06T05:54:45.254Z,101286.19
2023-05-06T05:57:14.561Z,101311.66
2023-05-06T05:59:43.922Z,101305.31
2023-05-06T06:02:13.183Z,101315.53
2023-05-06T06:04:44.387Z,101322.03
2023-05-06T06:07:13.901Z,101323.91
2023-05-06T06:09:46.888Z,101324.13
2023-05-06T06:12:18.212Z,101318.28
2023-05-06T06:14:48.645Z,101309.81
2023-05-06T06:17:22.169Z,101298.75
2023-05-06T06:19:57.272Z,101321.28
2023-05-06T06:22:27.448Z,101327.00
2023-05-06T06:24:58.611Z,101327.56
2023-05-06T06:27:28.566Z,101271.69
2023-05-06T06:29:58.679Z,101327.69
2023-05-06T06:32:27.875Z,101324.69
2023-05-06T06:34:58.790Z,101302.81
2023-05-06T06:37:28.339Z,101310.53
2023-05-06T06:39:58.038Z,101292.47
2023-05-06T06:42:27.299Z,101330.69
2023-05-06T06:45:12.085Z,101297.06
2023-05-06T06:47:42.259Z,101286.56
2023-05-06T06:50:13.658Z,101303.16
2023-05-06T06:52:43.105Z,101283.91
2023-05-06T06:55:12.390Z,101278.34
2023-05-06T06:57:41.950Z,101310.41
2023-05-06T07:00:22.225Z,101329.84
2023-05-06T07:02:52.156Z,101311.34
2023-05-06T07:05:22.903Z,101330.97
2023-05-06T07:07:52.335Z,101340.13
2023-05-06T07:10:22.504Z,101337.19
2023-05-06T07:13:00.027Z,101319.53
2023-05-06T07:15:32.358Z,101321.09
2023-05-06T07:18:02.693Z,101333.28
2023-05-06T07:20:33.394Z,101156.25
2023-05-06T07:23:02.843Z,101320.19
2023-05-06T07:25:32.518Z,101313.59
2023-05-06T07:28:01.920Z,101331.81
2023-05-06T07:30:31.640Z,101336.81
2023-05-06T07:33:01.579Z,101328.41
2023-05-06T07:35:32.502Z,101331.16
2023-05-06T07:38:01.819Z,101334.28
2023-05-06T07:40:31.404Z,101330.84
2023-05-06T07:43:03.990Z,101337.03
2023-05-06T07:45:33.019Z,101344.97
2023-05-06T07:48:02.548Z,101335.03
2023-05-06T07:50:34.542Z,101278.13
2023-05-06T07:53:04.385Z,101326.84
2023-05-06T07:55:35.256Z,101345.50
2023-05-06T07:58:05.076Z,101331.94
2023-05-06T08:00:34.612Z,101336.03
2023-05-06T08:03:04.337Z,101336.38
2023-05-06T08:05:37.174Z,101322.34
2023-05-06T08:08:06.982Z,101340.84
2023-05-06T08:10:36.182Z,101325.13
2023-05-06T08:13:05.872Z,101329.25
2023-05-06T08:15:35.609Z,101332.22
2023-05-06T08:18:20.972Z,101329.91
2023-05-06T08:20:53.378Z,101355.56
2023-05-06T08:23:22.993Z,101346.00
2023-05-06T08:25:52.728Z,101338.41
2023-05-06T08:28:25.396Z,101352.53
2023-05-06T08:31:01.510Z,101346.47
2023-05-06T08:33:36.026Z,101351.06
2023-05-06T08:36:06.998Z,101350.91
2023-05-06T08:38:37.018Z,101335.75
2023-05-06T08:41:13.398Z,101354.03
2023-05-06T08:43:44.711Z,101338.00
2023-05-06T08:46:14.574Z,101351.97
2023-05-06T08:48:43.925Z,101356.00
2023-05-06T08:51:25.522Z,101322.56
2023-05-06T08:53:56.562Z,101361.00
2023-05-06T08:56:34.801Z,101356.91
2023-05-06T08:59:09.175Z,101357.75
2023-05-06T09:01:38.990Z,101335.06
2023-05-06T09:04:10.660Z,101350.44
2023-05-06T09:06:42.213Z,101354.31
2023-05-06T09:09:13.272Z,101356.28
2023-05-06T09:11:42.654Z,101356.81
2023-05-06T09:14:14.146Z,101301.59
2023-05-06T09:16:44.549Z,101358.19
2023-05-06T09:19:14.818Z,101359.09
2023-05-06T09:21:46.754Z,101350.72
2023-05-06T09:24:17.425Z,101360.16
2023-05-06T09:26:47.842Z,101359.13
2023-05-06T09:29:17.538Z,101318.53
2023-05-06T09:31:48.686Z,101349.34
2023-05-06T09:34:18.746Z,101355.38
2023-05-06T09:36:49.287Z,101359.47
2023-05-06T09:39:18.681Z,101334.22
2023-05-06T09:41:48.332Z,101365.44
2023-05-06T09:44:17.526Z,101354.41
2023-05-06T09:46:47.806Z,101333.94
2023-05-06T09:49:18.799Z,101351.91
2023-05-06T09:51:52.108Z,101353.94
2023-05-06T09:54:22.760Z,101338.22
2023-05-06T09:56:53.413Z,101333.72
2023-05-06T09:59:24.108Z,101347.16
2023-05-06T10:01:53.943Z,101347.47
2023-05-06T10:04:26.521Z,101335.91
2023-05-06T10:06:57.766Z,101346.28
2023-05-06T10:09:28.314Z,101339.72
2023-05-06T10:12:00.339Z,101351.78
2023-05-06T10:14:31.118Z,101330.56
2023-05-06T10:17:01.671Z,101330.91
2023-05-06T10:19:33.906Z,101330.97
2023-05-06T10:22:09.982Z,101344.94
2023-05-06T10:24:47.832Z,101302.56
2023-05-06T10:27:20.157Z,101343.56
2023-05-06T10:29:50.438Z,101348.47
2023-05-06T10:32:22.582Z,101352.72
2023-05-06T10:34:57.795Z,101352.66
2023-05-06T10:37:34.159Z,101337.47
2023-05-06T10:40:10.143Z,101340.31
2023-05-06T10:42:42.111Z,101357.66
2023-05-06T10:45:11.812Z,101352.88
2023-05-06T10:48:10.157Z,101352.91
2023-05-06T10:50:39.752Z,101355.75
2023-05-06T10:53:10.324Z,101347.09
2023-05-06T10:55:39.630Z,101341.38
2023-05-06T10:58:15.631Z,101345.44
2023-05-06T11:00:54.951Z,101352.84
2023-05-06T11:03:25.704Z,101313.16
2023-05-06T11:05:55.086Z,101326.81
2023-05-06T11:08:27.623Z,101339.78
2023-05-06T11:10:56.838Z,101347.56
2023-05-06T11:13:27.853Z,101357.44
2023-05-06T11:15:58.515Z,101337.22
2023-05-06T11:18:44.615Z,101340.13
2023-05-06T11:21:42.056Z,101340.53
2023-05-06T11:24:14.708Z,101327.06
2023-05-06T11:26:44.415Z,101333.63
2023-05-06T11:29:16.383Z,101310.13
2023-05-06T11:31:46.506Z,101320.38
2023-05-06T11:34:23.234Z,101313.75
2023-05-06T11:37:02.762Z,101305.28
2023-05-06T11:39:49.966Z,101292.19
2023-05-06T11:42:26.196Z,101297.81
2023-05-06T11:44:56.425Z,101300.31
2023-05-06T11:47:25.635Z,101294.19
2023-05-06T11:49:56.578Z,101301.81
2023-05-06T11:52:26.036Z,101294.00
2023-05-06T11:54:56.503Z,101262.16
2023-05-06T11:57:26.378Z,101305.81
2023-05-06T11:59:55.792Z,101297.50
2023-05-06T12:02:26.493Z,101302.91
2023-05-06T12:04:56.726Z,101296.53
2023-05-06T12:07:26.162Z,101313.06
2023-05-06T12:09:56.688Z,101305.75
2023-05-06T12:12:26.607Z,101304.81
2023-05-06T12:14:56.086Z,101302.25
2023-05-06T12:17:25.659Z,101297.19
2023-05-06T12:19:55.019Z,101285.34
2023-05-06T12:22:25.775Z,101302.84
2023-05-06T12:24:56.213Z,101293.41
2023-05-06T12:27:33.339Z,101275.56
2023-05-06T12:30:04.656Z,101295.75
2023-05-06T12:32:34.432Z,101278.81
2023-05-06T12:35:07.593Z,101300.66
2023-05-06T12:37:36.941Z,101276.59
2023-05-06T12:40:18.147Z,101275.38
2023-05-06T12:42:55.356Z,101295.13
2023-05-06T12:45:25.132Z,101291.59
2023-05-06T12:47:55.402Z,101284.16
2023-05-06T12:50:36.211Z,101284.34
2023-05-06T12:53:08.311Z,101296.59
2023-05-06T12:55:41.851Z,101275.72
2023-05-06T12:58:20.967Z,101281.41
2023-05-06T13:00:50.476Z,101284.13
2023-05-06T13:03:22.245Z,101294.28
2023-05-06T13:05:55.163Z,101287.44
2023-05-06T13:08:34.363Z,101266.63
2023-05-06T13:11:08.015Z,101252.03
2023-05-06T13:13:39.325Z,101280.25
2023-05-06T13:16:10.993Z,101258.47
2023-05-06T13:18:40.180Z,101276.84
2023-05-06T13:21:09.584Z,101271.66
2023-05-06T13:23:41.958Z,101276.47
2023-05-06T13:26:12.505Z,101278.03
2023-05-06T13:28:41.992Z,101274.81
2023-05-06T13:31:11.424Z,101277.44
2023-05-06T13:33:41.177Z,101269.03
2023-05-06T13:36:11.221Z,101256.19
2023-05-06T13:38:42.493Z,101270.69
2023-05-06T13:41:13.391Z,101259.19
2023-05-06T13:43:42.465Z,101245.78
2023-05-06T13:46:11.651Z,101223.09
2023-05-06T13:48:41.178Z,101267.84
2023-05-06T13:51:10.419Z,101228.91
2023-05-06T13:53:39.648Z,101278.16
2023-05-06T13:56:09.610Z,101267.16
2023-05-06T13:58:39.939Z,101272.22
2023-05-06T14:01:09.413Z,101261.94
2023-05-06T14:03:44.687Z,101260.56
2023-05-06T14:06:14.202Z,101274.09
2023-05-06T14:08:43.606Z,101269.47
2023-05-06T14:11:13.030Z,101260.13
2023-05-06T14:13:43.647Z,101274.78
2023-05-06T14:16:16.694Z,101244.91
2023-05-06T14:18:46.233Z,101246.59
2023-05-06T14:21:15.283Z,101258.59
2023-05-06T14:23:44.416Z,101284.22
2023-05-06T14:26:14.248Z,101256.91
2023-05-06T14:28:45.128Z,101286.88
2023-05-06T14:31:14.624Z,101269.09
2023-05-06T14:33:44.234Z,101261.19
2023-05-06T14:36:19.421Z,101257.53
2023-05-06T14:38:51.670Z,101258.28
2023-05-06T14:41:20.980Z,101239.59
2023-05-06T14:43:51.949Z,101246.00
2023-05-06T14:46:21.695Z,101256.63
2023-05-06T14:48:51.082Z,101243.66
2023-05-06T14:51:20.251Z,101246.09
2023-05-06T14:53:49.896Z,101215.94
2023-05-06T14:56:19.447Z,101214.59
2023-05-06T14:58:49.048Z,101232.97
2023-05-06T15:01:19.577Z,101233.16
2023-05-06T15:03:50.807Z,101249.03
2023-05-06T15:06:20.876Z,101235.66
2023-05-06T15:08:49.938Z,101239.97
2023-05-06T15:11:19.373Z,101225.09
2023-05-06T15:13:48.805Z,101240.09
2023-05-06T15:16:34.386Z,101234.16
2023-05-06T15:19:09.280Z,101240.88
2023-05-06T15:21:38.783Z,101244.94
2023-05-06T15:24:09.243Z,101227.66
2023-05-06T15:26:38.538Z,101251.22
2023-05-06T15:29:08.078Z,101222.81
2023-05-06T15:31:41.029Z,101237.53
2023-05-06T15:34:11.909Z,101246.88
2023-05-06T15:36:41.850Z,101218.38
2023-05-06T15:39:14.034Z,101230.59
2023-05-06T15:41:43.278Z,101255.03
2023-05-06T15:44:15.949Z,101230.84
2023-05-06T15:46:46.971Z,101239.28
2023-05-06T15:51:48.261Z,101257.81
2023-05-06T15:54:19.131Z,101264.56
2023-05-06T15:56:48.688Z,101267.25
2023-05-06T15:59:17.963Z,101251.72
2023-05-06T16:04:21.693Z,101260.34
2023-05-06T16:06:51.143Z,101230.72
2023-05-06T16:09:20.272Z,101278.59
2023-05-06T16:11:50.030Z,101263.44
2023-05-06T16:14:19.569Z,101275.41
2023-05-06T16:16:50.213Z,101275.84
2023-05-06T16:19:19.360Z,101270.03
2023-05-06T16:21:48.434Z,101274.91
2023-05-06T16:24:17.538Z,101263.06
2023-05-06T16:26:46.596Z,101263.75
2023-05-06T16:29:19.141Z,101255.31
2023-05-06T16:31:50.434Z,101248.13
2023-05-06T16:34:19.632Z,101200.91
2023-05-06T16:36:48.650Z,101262.81
2023-05-06T16:39:17.780Z,101259.44
2023-05-06T16:41:47.663Z,101245.06
2023-05-06T16:44:17.204Z,101267.13
2023-05-06T16:46:46.585Z,101270.91
2023-05-06T16:49:22.686Z,101281.69
2023-05-06T16:51:54.181Z,101277.03
2023-05-06T16:54:26.655Z,101265.31
2023-05-06T16:56:56.297Z,101252.44
2023-05-06T16:59:25.398Z,101235.56
2023-05-06T17:01:54.763Z,101264.75
2023-05-06T17:04:27.609Z,101269.16
2023-05-06T17:06:57.519Z,101243.16
2023-05-06T17:09:27.139Z,101270.84
2023-05-06T17:11:56.422Z,101280.72
2023-05-06T17:14:25.796Z,101273.25
2023-05-06T17:17:01.350Z,101277.63
2023-05-06T17:19:39.416Z,101285.44
2023-05-06T17:22:12.042Z,101288.84
2023-05-06T17:24:41.722Z,101282.91
2023-05-06T17:27:11.454Z,101268.47
2023-05-06T17:29:47.572Z,101247.09
2023-05-06T17:32:16.804Z,101305.16
2023-05-06T17:34:47.295Z,101303.13
2023-05-06T17:37:17.057Z,101306.72
2023-05-06T17:39:47.378Z,101311.19
2023-05-06T17:42:16.838Z,101305.84
2023-05-06T17:44:47.544Z,101318.47
2023-05-06T17:47:17.677Z,101300.59
2023-05-06T17:49:48.710Z,101298.34
2023-05-06T17:52:18.840Z,101328.41
2023-05-06T17:55:05.654Z,101285.00
2023-05-06T17:57:52.914Z,101331.09
2023-05-06T18:00:22.888Z,101322.75
2023-05-06T18:02:52.302Z,101338.94
2023-05-06T18:05:24.754Z,101312.66
2023-05-06T18:07:54.264Z,101337.81
2023-05-06T18:10:23.867Z,101292.50
2023-05-06T18:12:53.862Z,101338.69
2023-05-06T18:15:23.626Z,101342.22
2023-05-06T18:17:53.509Z,101348.50
2023-05-06T18:20:34.183Z,101345.06
2023-05-06T18:23:03.503Z,101357.66
2023-05-06T18:25:32.538Z,101342.59
2023-05-06T18:28:02.722Z,101362.41
2023-05-06T18:30:37.641Z,101327.75
2023-05-06T18:33:07.564Z,101332.91
2023-05-06T18:35:39.570Z,101350.13
2023-05-06T18:38:09.869Z,101336.78
2023-05-06T18:40:40.270Z,101352.69
2023-05-06T18:43:13.170Z,101350.03
2023-05-06T18:45:43.083Z,101345.66
2023-05-06T18:48:12.641Z,101326.03
2023-05-06T18:50:44.155Z,101331.25
2023-05-06T18:53:13.438Z,101316.91
2023-05-06T18:55:43.084Z,101330.59
2023-05-06T18:58:12.568Z,101323.94
2023-05-06T19:00:42.163Z,101330.13
2023-05-06T19:03:11.224Z,101330.44
2023-05-06T19:05:40.744Z,101324.53
2023-05-06T19:08:13.822Z,101326.22
2023-05-06T19:10:42.852Z,101299.34
2023-05-06T19:13:12.401Z,101317.28
2023-05-06T19:15:41.494Z,101342.91
2023-05-06T19:18:12.379Z,101318.63
2023-05-06T19:20:41.717Z,101341.06
2023-05-06T19:23:12.739Z,101306.97
2023-05-06T19:25:42.374Z,101334.41
2023-05-06T19:28:12.268Z,101330.97
2023-05-06T19:30:41.676Z,101313.59
2023-05-06T19:33:11.312Z,101329.34
2023-05-06T19:35:40.806Z,101308.94
2023-05-06T19:38:11.573Z,101313.59
2023-05-06T19:40:40.778Z,101335.00
2023-05-06T19:43:10.130Z,101342.13
2023-05-06T19:45:39.509Z,101313.75
2023-05-06T19:48:09.657Z,101316.53
2023-05-06T19:50:39.204Z,101327.38
2023-05-06T19:53:08.983Z,101323.97
2023-05-06T19:55:39.601Z,101311.94
2023-05-06T19:58:08.780Z,101322.38
2023-05-06T20:00:39.855Z,101328.44
2023-05-06T20:03:09.906Z,101328.97
2023-05-06T20:05:39.155Z,101337.66
2023-05-06T20:08:10.973Z,101335.50
2023-05-06T20:10:41.476Z,101336.03
2023-05-06T20:13:12.124Z,101338.41
2023-05-06T20:15:42.104Z,101293.00
2023-05-06T20:18:11.440Z,101336.63
2023-05-06T20:20:41.235Z,101342.91
2023-05-06T20:23:10.433Z,101332.00
2023-05-06T20:25:44.605Z,101339.63
2023-05-06T20:28:19.616Z,101338.94
2023-05-06T20:30:51.337Z,101336.97
2023-05-06T20:33:20.676Z,101335.91
2023-05-06T20:35:51.083Z,101322.09
2023-05-06T20:38:20.945Z,101331.00
2023-05-06T20:40:51.902Z,101335.78
2023-05-06T20:43:21.405Z,101327.03
2023-05-06T20:45:50.794Z,101300.00
2023-05-06T20:48:20.001Z,101334.00
2023-05-06T20:50:49.557Z,101327.97
2023-05-06T20:53:18.898Z,101319.97
2023-05-06T20:55:49.351Z,101321.09
2023-05-06T20:58:19.965Z,101329.28
2023-05-06T21:00:50.317Z,101327.81
2023-05-06T21:03:19.836Z,101327.81
2023-05-06T21:05:49.617Z,101329.75
2023-05-06T21:08:21.617Z,101302.03
2023-05-06T21:10:51.344Z,101328.50
2023-05-06T21:13:24.616Z,101316.97
2023-05-06T21:15:53.877Z,101333.47
2023-05-06T21:18:24.892Z,101295.44
2023-05-06T21:20:56.925Z,101326.78
2023-05-06T21:23:25.958Z,101331.31
2023-05-06T21:25:55.290Z,101324.91
2023-05-06T21:28:26.319Z,101304.44
2023-05-06T21:30:55.506Z,101305.28
2023-05-06T21:33:25.175Z,101332.06
2023-05-06T21:35:54.468Z,101335.31
2023-05-06T21:38:23.625Z,101328.19
2023-05-06T21:40:52.824Z,101331.69
2023-05-06T21:43:22.208Z,101325.16
2023-05-06T21:45:52.887Z,101313.28
2023-05-06T21:48:22.128Z,101330.94
2023-05-06T21:50:55.372Z,101338.72
2023-05-06T21:53:24.911Z,101332.03
2023-05-06T21:55:54.608Z,101330.31
2023-05-06T21:58:24.026Z,101325.63
2023-05-06T22:00:54.600Z,101327.22
2023-05-06T22:03:23.824Z,101311.91
2023-05-06T22:05:53.214Z,101342.66
2023-05-06T22:08:22.849Z,101343.00
2023-05-06T22:10:52.270Z,101340.66
2023-05-06T22:13:24.894Z,101333.81
2023-05-06T22:15:56.987Z,101344.00
2023-05-06T22:18:28.001Z,101343.75
2023-05-06T22:20:58.001Z,101330.25
2023-05-06T22:23:28.192Z,101326.03
2023-05-06T22:25:58.511Z,101331.38
2023-05-06T22:28:28.629Z,101334.03
2023-05-06T22:30:59.433Z,101334.69
2023-05-06T22:33:28.402Z,101331.78
2023-05-06T22:35:57.623Z,101324.84
2023-05-06T22:38:27.047Z,101333.72
2023-05-06T22:40:55.986Z,101327.72
2023-05-06T22:43:25.492Z,101322.41
2023-05-06T22:45:54.708Z,101327.25
2023-05-06T22:48:25.362Z,101331.16
2023-05-06T22:50:56.579Z,101332.56
2023-05-06T22:53:26.065Z,101319.28
2023-05-06T22:55:55.235Z,101314.75
2023-05-06T22:58:24.649Z,101325.78
2023-05-06T23:00:55.147Z,101342.72
2023-05-06T23:03:25.814Z,101336.84
2023-05-06T23:05:55.153Z,101319.69
2023-05-06T23:08:24.522Z,101336.66
2023-05-06T23:10:53.553Z,101336.75
2023-05-06T23:13:23.027Z,101323.81
2023-05-06T23:15:52.460Z,101321.31
2023-05-06T23:18:21.865Z,101286.31
2023-05-06T23:20:52.817Z,101289.25
2023-05-06T23:23:21.950Z,101304.41
2023-05-06T23:25:51.018Z,101295.66
2023-05-06T23:28:20.396Z,101336.47
2023-05-06T23:30:49.976Z,101332.53
2023-05-06T23:33:19.065Z,101330.66
2023-05-06T23:35:48.228Z,101327.38
2023-05-06T23:38:18.614Z,101324.41
2023-05-06T23:40:47.765Z,101307.06
2023-05-06T23:43:17.073Z,101334.13
2023-05-06T23:45:46.670Z,101331.78
2023-05-06T23:48:16.147Z,101303.94
2023-05-06T23:50:45.336Z,101325.38
2023-05-06T23:53:15.050Z,101326.06
2023-05-06T23:55:48.805Z,101316.75
2023-05-06T23:58:17.881Z,101319.00
